createdAt,value
2018-01-22T00:02:22.805Z,100339.75
2018-01-22T00:04:50.315Z,100346.72
2018-01-22T00:07:17.840Z,100355.89
2018-01-22T00:09:45.297Z,100354.17
2018-01-22T00:12:12.821Z,100335.71
2018-01-22T00:14:40.306Z,100335.48
2018-01-22T00:17:08.062Z,100333.67
2018-01-22T00:19:35.583Z,100332.14
2018-01-22T00:22:03.069Z,100332.37
2018-01-22T00:24:30.582Z,100321.41
2018-01-22T00:26:58.103Z,100323.08
2018-01-22T00:29:25.610Z,100327.36
2018-01-22T00:31:53.116Z,100326.31
2018-01-22T00:34:20.584Z,100325.70
2018-01-22T00:36:48.061Z,100316.95
2018-01-22T00:39:15.537Z,100326.06
2018-01-22T00:41:43.029Z,100328.31
2018-01-22T00:44:10.465Z,100313.48
2018-01-22T00:46:37.969Z,100307.64
2018-01-22T00:49:05.445Z,100304.38
2018-01-22T00:51:32.997Z,100304.15
2018-01-22T00:54:00.469Z,100312.42
2018-01-22T00:56:27.914Z,100302.95
2018-01-22T00:58:55.375Z,100301.64
2018-01-22T01:01:22.892Z,100292.41
2018-01-22T01:03:50.355Z,100286.99
2018-01-22T01:06:17.917Z,100286.09
2018-01-22T01:08:45.388Z,100286.94
2018-01-22T01:11:12.862Z,100287.28
2018-01-22T01:13:40.398Z,100287.34
2018-01-22T01:16:07.859Z,100283.81
2018-01-22T01:18:35.442Z,100278.28
2018-01-22T01:21:02.927Z,100286.81
2018-01-22T01:23:31.190Z,100285.01
2018-01-22T01:25:58.701Z,100276.80
2018-01-22T01:28:26.159Z,100271.80
2018-01-22T01:30:53.718Z,100268.09
2018-01-22T01:33:21.218Z,100266.08
2018-01-22T01:35:48.660Z,100270.42
2018-01-22T01:38:16.113Z,100276.27
2018-01-22T01:40:43.592Z,100267.16
2018-01-22T01:43:11.102Z,100274.77
2018-01-22T01:45:38.644Z,100268.94
2018-01-22T01:48:06.147Z,100258.69
2018-01-22T01:50:33.610Z,100257.44
2018-01-22T01:53:01.137Z,100250.48
2018-01-22T01:55:28.632Z,100237.55
2018-01-22T01:57:56.063Z,100236.02
2018-01-22T02:00:37.887Z,100237.78
2018-01-22T02:03:05.351Z,100231.73
2018-01-22T02:05:32.812Z,100225.94
2018-01-22T02:08:01.399Z,100217.31
2018-01-22T02:10:28.917Z,100208.20
2018-01-22T02:12:56.360Z,100203.37
2018-01-22T02:15:23.818Z,100192.11
2018-01-22T02:17:51.293Z,100184.07
2018-01-22T02:20:18.864Z,100177.90
2018-01-22T02:22:46.334Z,100186.34
2018-01-22T02:25:13.779Z,100173.19
2018-01-22T02:27:41.248Z,100164.69
2018-01-22T02:30:08.723Z,100162.83
2018-01-22T02:32:36.175Z,100159.50
2018-01-22T02:35:04.488Z,100161.28
2018-01-22T02:37:32.177Z,100150.13
2018-01-22T02:39:59.668Z,100149.90
2018-01-22T02:42:27.118Z,100150.80
2018-01-22T02:44:54.647Z,100152.00
2018-01-22T02:47:22.136Z,100160.15
2018-01-22T02:49:49.607Z,100156.27
2018-01-22T02:52:17.152Z,100150.08
2018-01-22T02:54:44.612Z,100150.98
2018-01-22T02:57:12.111Z,100163.49
2018-01-22T02:59:39.694Z,100157.00
2018-01-22T03:02:07.184Z,100156.22
2018-01-22T03:04:34.681Z,100146.70
2018-01-22T03:07:02.149Z,100133.89
2018-01-22T03:09:29.665Z,100125.69
2018-01-22T03:11:57.143Z,100122.95
2018-01-22T03:14:25.080Z,100105.98
2018-01-22T03:16:52.548Z,100099.72
2018-01-22T03:19:20.019Z,100101.56
2018-01-22T03:21:47.488Z,100099.66
2018-01-22T03:24:14.961Z,100086.69
2018-01-22T03:26:42.417Z,100097.28
2018-01-22T03:29:09.908Z,100087.04
2018-01-22T03:31:37.404Z,100085.94
2018-01-22T03:34:04.893Z,100086.69
2018-01-22T03:36:32.374Z,100087.95
2018-01-22T03:39:00.106Z,100089.66
2018-01-22T03:41:27.530Z,100082.83
2018-01-22T03:43:55.036Z,100064.98
2018-01-22T03:46:22.552Z,100059.25
2018-01-22T03:48:50.014Z,100049.27
2018-01-22T03:51:17.555Z,100049.50
2018-01-22T03:53:45.039Z,100062.22
2018-01-22T03:56:12.508Z,100082.83
2018-01-22T03:58:39.973Z,100095.92
2018-01-22T04:01:07.451Z,100097.23
2018-01-22T04:03:34.934Z,100091.29
2018-01-22T04:06:02.478Z,100077.87
2018-01-22T04:08:29.946Z,100053.78
2018-01-22T04:10:57.460Z,100046.83
2018-01-22T04:13:24.946Z,100057.19
2018-01-22T04:15:52.418Z,100057.71
2018-01-22T04:18:20.207Z,100051.52
2018-01-22T04:20:47.674Z,100049.73
2018-01-22T04:23:15.136Z,100047.36
2018-01-22T04:25:42.594Z,100041.05
2018-01-22T04:28:10.047Z,100042.80
2018-01-22T04:30:37.516Z,100051.40
2018-01-22T04:33:04.956Z,100048.78
2018-01-22T04:35:32.410Z,100037.43
2018-01-22T04:38:00.634Z,100042.72
2018-01-22T04:40:28.622Z,100044.73
2018-01-22T04:42:56.781Z,100041.77
2018-01-22T04:45:24.384Z,100018.78
2018-01-22T04:47:51.837Z,100012.05
2018-01-22T04:50:19.320Z,100020.81
2018-01-22T04:52:46.902Z,100009.66
2018-01-22T04:55:14.399Z,100002.05
2018-01-22T04:57:42.046Z,99986.27
2018-01-22T05:00:09.606Z,99991.38
2018-01-22T05:02:37.109Z,99988.42
2018-01-22T05:05:04.603Z,99985.98
2018-01-22T05:07:32.068Z,99984.73
2018-01-22T05:09:59.558Z,99984.61
2018-01-22T05:12:26.986Z,99978.41
2018-01-22T05:14:54.442Z,99964.66
2018-01-22T05:17:22.012Z,99961.47
2018-01-22T05:19:49.552Z,99953.06
2018-01-22T05:22:17.049Z,99951.33
2018-01-22T05:24:44.570Z,99945.55
2018-01-22T05:27:12.157Z,99946.45
2018-01-22T05:29:39.618Z,99964.66
2018-01-22T05:32:07.119Z,99949.02
2018-01-22T05:34:34.599Z,99947.19
2018-01-22T05:37:02.039Z,99953.66
2018-01-22T05:39:29.522Z,99955.73
2018-01-22T05:41:57.009Z,99951.41
2018-01-22T05:44:24.472Z,99956.86
2018-01-22T05:46:51.946Z,99959.12
2018-01-22T05:49:19.453Z,99959.36
2018-01-22T05:51:46.904Z,99957.50
2018-01-22T05:54:14.394Z,99954.72
2018-01-22T05:56:41.879Z,99946.98
2018-01-22T05:59:09.321Z,99941.22
2018-01-22T06:01:36.804Z,99936.27
2018-01-22T06:04:04.532Z,99937.69
2018-01-22T06:06:31.993Z,99930.60
2018-01-22T06:08:59.454Z,99927.88
2018-01-22T06:11:26.920Z,99941.57
2018-01-22T06:13:54.385Z,99945.09
2018-01-22T06:16:21.953Z,99937.78
2018-01-22T06:18:49.511Z,99941.84
2018-01-22T06:21:16.954Z,99938.91
2018-01-22T06:23:45.147Z,99940.09
2018-01-22T06:26:12.591Z,99943.78
2018-01-22T06:28:40.040Z,99937.81
2018-01-22T06:31:07.502Z,99944.31
2018-01-22T06:33:35.049Z,99940.19
2018-01-22T06:36:02.506Z,99938.71
2018-01-22T06:38:30.029Z,99941.57
2018-01-22T06:40:57.633Z,99937.22
2018-01-22T06:43:25.169Z,99937.61
2018-01-22T06:45:52.646Z,99913.55
2018-01-22T06:48:20.143Z,99907.16
2018-01-22T06:50:47.840Z,99905.28
2018-01-22T06:53:15.484Z,99897.41
2018-01-22T06:55:42.953Z,99903.22
2018-01-22T06:58:13.071Z,99899.88
2018-01-22T07:00:40.515Z,99894.07
2018-01-22T07:03:08.060Z,99880.56
2018-01-22T07:05:35.528Z,99873.83
2018-01-22T07:08:03.053Z,99869.63
2018-01-22T07:10:30.594Z,99876.36
2018-01-22T07:12:58.109Z,99865.88
2018-01-22T07:15:25.587Z,99859.42
2018-01-22T07:17:53.090Z,99859.47
2018-01-22T07:20:20.775Z,99860.88
2018-01-22T07:22:48.239Z,99857.97
2018-01-22T07:25:16.480Z,99867.52
2018-01-22T07:27:44.035Z,99866.41
2018-01-22T07:30:11.729Z,99858.18
2018-01-22T07:32:39.365Z,99866.91
2018-01-22T07:35:06.888Z,99870.11
2018-01-22T07:37:34.579Z,99868.03
2018-01-22T07:40:02.038Z,99868.31
2018-01-22T07:42:29.596Z,99864.95
2018-01-22T07:44:57.046Z,99870.57
2018-01-22T07:47:24.575Z,99872.33
2018-01-22T07:49:52.064Z,99876.80
2018-01-22T07:52:19.586Z,99877.05
2018-01-22T07:54:47.028Z,99878.96
2018-01-22T07:57:14.669Z,99871.22
2018-01-22T07:59:42.238Z,99871.84
2018-01-22T08:02:09.760Z,99878.22
2018-01-22T08:04:37.479Z,99881.61
2018-01-22T08:07:05.119Z,99876.25
2018-01-22T08:09:32.590Z,99873.39
2018-01-22T08:12:00.121Z,99866.48
2018-01-22T08:14:27.720Z,99863.36
2018-01-22T08:16:55.408Z,99874.08
2018-01-22T08:19:23.294Z,99875.39
2018-01-22T08:21:50.774Z,99879.58
2018-01-22T08:24:18.229Z,99885.80
2018-01-22T08:26:45.849Z,99890.92
2018-01-22T08:29:13.349Z,99877.98
2018-01-22T08:31:40.859Z,99876.35
2018-01-22T08:34:08.817Z,99874.23
2018-01-22T08:36:37.091Z,99873.37
2018-01-22T08:39:04.720Z,99861.17
2018-01-22T08:41:41.813Z,99860.06
2018-01-22T08:44:09.514Z,99866.28
2018-01-22T08:46:37.164Z,99865.52
2018-01-22T08:49:04.858Z,99863.09
2018-01-22T08:51:37.331Z,99865.02
2018-01-22T08:54:04.890Z,99867.80
2018-01-22T08:56:32.419Z,99875.63
2018-01-22T08:58:59.879Z,99881.04
2018-01-22T09:01:27.343Z,99882.11
2018-01-22T09:03:54.909Z,99881.94
2018-01-22T09:06:22.832Z,99872.16
2018-01-22T09:08:50.330Z,99874.03
2018-01-22T09:11:19.089Z,99875.55
2018-01-22T09:13:46.600Z,99864.61
2018-01-22T09:16:14.250Z,99864.16
2018-01-22T09:18:42.530Z,99860.05
2018-01-22T09:21:10.147Z,99852.93
2018-01-22T09:23:37.701Z,99843.66
2018-01-22T09:26:05.250Z,99842.60
2018-01-22T09:28:32.764Z,99841.45
2018-01-22T09:31:00.277Z,99840.30
2018-01-22T09:33:27.863Z,99830.75
2018-01-22T09:35:55.377Z,99827.76
2018-01-22T09:38:22.953Z,99819.52
2018-01-22T09:40:50.513Z,99807.97
2018-01-22T09:43:18.017Z,99809.50
2018-01-22T09:45:45.652Z,99802.61
2018-01-22T09:48:13.312Z,99795.95
2018-01-22T09:50:40.798Z,99797.21
2018-01-22T09:53:08.268Z,99802.74
2018-01-22T09:55:35.790Z,99803.48
2018-01-22T09:58:03.259Z,99815.80
2018-01-22T10:00:30.719Z,99813.28
2018-01-22T10:02:58.192Z,99809.75
2018-01-22T10:05:25.689Z,99807.12
2018-01-22T10:07:53.358Z,99793.94
2018-01-22T10:10:20.909Z,99795.85
2018-01-22T10:12:48.393Z,99785.92
2018-01-22T10:15:15.939Z,99781.97
2018-01-22T10:17:43.417Z,99784.53
2018-01-22T10:20:10.971Z,99776.12
2018-01-22T10:22:38.483Z,99773.06
2018-01-22T10:25:06.030Z,99771.09
2018-01-22T10:27:33.574Z,99773.06
2018-01-22T10:30:01.058Z,99765.88
2018-01-22T10:32:28.597Z,99761.33
2018-01-22T10:34:56.041Z,99764.41
2018-01-22T10:37:23.562Z,99764.63
2018-01-22T10:39:51.068Z,99754.17
2018-01-22T10:42:18.598Z,99749.84
2018-01-22T10:44:46.139Z,99753.66
2018-01-22T10:47:14.905Z,99741.41
2018-01-22T10:49:42.427Z,99743.23
2018-01-22T10:52:09.898Z,99737.27
2018-01-22T10:54:37.416Z,99740.30
2018-01-22T10:57:05.359Z,99731.05
2018-01-22T10:59:32.814Z,99730.16
2018-01-22T11:02:00.681Z,99717.56
2018-01-22T11:04:28.241Z,99717.97
2018-01-22T11:06:55.707Z,99712.81
2018-01-22T11:09:23.163Z,99709.41
2018-01-22T11:11:50.657Z,99705.01
2018-01-22T11:14:18.169Z,99700.29
2018-01-22T11:16:45.645Z,99704.13
2018-01-22T11:19:13.136Z,99705.76
2018-01-22T11:21:40.705Z,99698.48
2018-01-22T11:24:08.236Z,99694.77
2018-01-22T11:26:35.676Z,99689.17
2018-01-22T11:29:03.368Z,99680.09
2018-01-22T11:31:30.836Z,99674.31
2018-01-22T11:33:58.454Z,99664.29
2018-01-22T11:36:25.956Z,99659.45
2018-01-22T11:38:53.448Z,99660.79
2018-01-22T11:41:20.929Z,99662.35
2018-01-22T11:43:48.427Z,99654.77
2018-01-22T11:46:15.996Z,99646.39
2018-01-22T11:48:43.563Z,99640.29
2018-01-22T11:51:11.071Z,99634.39
2018-01-22T11:53:38.523Z,99631.16
2018-01-22T11:56:06.017Z,99634.12
2018-01-22T11:58:33.611Z,99638.53
2018-01-22T12:01:01.370Z,99634.72
2018-01-22T12:03:28.935Z,99628.92
2018-01-22T12:05:56.433Z,99621.30
2018-01-22T12:08:24.895Z,99615.89
2018-01-22T12:10:52.349Z,99608.78
2018-01-22T12:13:19.872Z,99609.59
2018-01-22T12:15:47.439Z,99598.23
2018-01-22T12:18:14.982Z,99595.52
2018-01-22T12:20:42.530Z,99595.38
2018-01-22T12:23:10.044Z,99592.10
2018-01-22T12:25:37.584Z,99588.34
2018-01-22T12:28:05.164Z,99581.16
2018-01-22T12:30:32.726Z,99582.96
2018-01-22T12:33:00.264Z,99578.20
2018-01-22T12:35:27.768Z,99587.42
2018-01-22T12:37:55.326Z,99587.61
2018-01-22T12:40:22.849Z,99583.10
2018-01-22T12:42:50.341Z,99583.59
2018-01-22T12:45:19.548Z,99578.43
2018-01-22T12:47:47.041Z,99568.52
2018-01-22T12:50:14.588Z,99571.21
2018-01-22T12:52:42.288Z,99561.63
2018-01-22T12:55:09.839Z,99558.30
2018-01-22T12:57:37.380Z,99559.72
2018-01-22T13:00:04.856Z,99560.09
2018-01-22T13:02:32.402Z,99559.45
2018-01-22T13:04:59.884Z,99552.75
2018-01-22T13:07:27.515Z,99556.84
2018-01-22T13:09:55.016Z,99548.10
2018-01-22T13:12:22.664Z,99540.25
2018-01-22T13:14:50.190Z,99543.80
2018-01-22T13:17:20.785Z,99552.99
2018-01-22T13:19:48.396Z,99553.89
2018-01-22T13:22:15.949Z,99561.73
2018-01-22T13:24:43.578Z,99562.98
2018-01-22T13:27:11.143Z,99548.04
2018-01-22T13:29:38.662Z,99556.65
2018-01-22T13:32:11.648Z,99554.41
2018-01-22T13:34:39.218Z,99554.94
2018-01-22T13:37:06.771Z,99555.19
2018-01-22T13:39:34.396Z,99552.55
2018-01-22T13:42:01.937Z,99557.66
2018-01-22T13:44:29.490Z,99550.62
2018-01-22T13:46:56.939Z,99552.63
2018-01-22T13:49:24.622Z,99544.33
2018-01-22T13:52:06.331Z,99546.30
2018-01-22T13:54:33.873Z,99543.95
2018-01-22T13:57:01.365Z,99540.83
2018-01-22T13:59:28.832Z,99546.33
2018-01-22T14:01:57.082Z,99541.00
2018-01-22T14:04:24.685Z,99540.67
2018-01-22T14:06:52.215Z,99551.55
2018-01-22T14:09:19.755Z,99550.89
2018-01-22T14:11:47.205Z,99549.19
2018-01-22T14:14:14.744Z,99547.77
2018-01-22T14:16:42.220Z,99548.24
2018-01-22T14:19:09.771Z,99560.81
2018-01-22T14:21:56.492Z,99553.89
2018-01-22T14:24:24.017Z,99559.02
2018-01-22T14:26:51.508Z,99556.23
2018-01-22T14:29:20.809Z,99552.06
2018-01-22T14:31:48.498Z,99550.45
2018-01-22T14:34:15.999Z,99545.72
2018-01-22T14:36:44.796Z,99548.45
2018-01-22T14:39:12.360Z,99542.30
2018-01-22T14:41:40.060Z,99546.53
2018-01-22T14:44:07.522Z,99542.88
2018-01-22T14:46:35.132Z,99553.62
2018-01-22T14:49:02.645Z,99549.78
2018-01-22T14:51:30.117Z,99552.94
2018-01-22T14:53:57.611Z,99555.87
2018-01-22T14:56:25.488Z,99553.24
2018-01-22T14:58:52.994Z,99551.80
2018-01-22T15:01:20.512Z,99555.81
2018-01-22T15:03:48.094Z,99558.03
2018-01-22T15:06:16.448Z,99552.51
2018-01-22T15:08:44.106Z,99559.20
2018-01-22T15:11:16.589Z,99558.44
2018-01-22T15:13:44.103Z,99558.27
2018-01-22T15:16:11.543Z,99551.22
2018-01-22T15:18:40.077Z,99557.75
2018-01-22T15:21:07.539Z,99557.00
2018-01-22T15:23:35.003Z,99558.03
2018-01-22T15:28:38.196Z,99569.16
2018-01-22T15:31:05.666Z,99575.46
2018-01-22T15:33:33.336Z,99572.31
2018-01-22T15:36:00.811Z,99574.30
2018-01-22T15:38:28.409Z,99572.41
2018-01-22T15:40:55.909Z,99578.43
2018-01-22T15:43:23.431Z,99581.08
2018-01-22T15:45:51.080Z,99577.67
2018-01-22T15:48:18.586Z,99590.14
2018-01-22T15:50:46.319Z,99588.27
2018-01-22T15:53:13.869Z,99584.20
2018-01-22T15:55:41.451Z,99591.17
2018-01-22T15:58:09.047Z,99597.73
2018-01-22T16:00:37.064Z,99590.67
2018-01-22T16:03:04.629Z,99597.86
2018-01-22T16:05:32.123Z,99596.67
2018-01-22T16:07:59.772Z,99595.63
2018-01-22T16:10:27.317Z,99594.60
2018-01-22T16:12:54.876Z,99595.03
2018-01-22T16:15:22.399Z,99601.44
2018-01-22T16:17:49.902Z,99594.10
2018-01-22T16:20:17.603Z,99593.67
2018-01-22T16:22:45.169Z,99595.88
2018-01-22T16:25:12.719Z,99598.01
2018-01-22T16:27:40.241Z,99606.81
2018-01-22T16:30:07.858Z,99606.28
2018-01-22T16:32:35.381Z,99608.78
2018-01-22T16:35:02.866Z,99608.02
2018-01-22T16:37:30.424Z,99617.80
2018-01-22T16:39:57.937Z,99623.33
2018-01-22T16:42:25.489Z,99628.70
2018-01-22T16:44:53.095Z,99625.92
2018-01-22T16:47:26.033Z,99627.27
2018-01-22T16:49:53.524Z,99631.83
2018-01-22T16:52:21.083Z,99629.58
2018-01-22T16:54:48.902Z,99622.23
2018-01-22T16:57:16.493Z,99631.02
2018-01-22T16:59:44.026Z,99634.80
2018-01-22T17:02:11.471Z,99642.66
2018-01-22T17:04:39.056Z,99642.50
2018-01-22T17:07:06.562Z,99639.48
2018-01-22T17:09:34.086Z,99634.08
2018-01-22T17:12:01.634Z,99646.66
2018-01-22T17:14:29.192Z,99648.63
2018-01-22T17:16:56.678Z,99657.40
2018-01-22T17:19:24.234Z,99664.11
2018-01-22T17:21:51.783Z,99676.00
2018-01-22T17:24:19.288Z,99682.44
2018-01-22T17:26:46.884Z,99687.05
2018-01-22T17:29:14.543Z,99694.95
2018-01-22T17:31:42.043Z,99689.21
2018-01-22T17:34:09.547Z,99686.19
2018-01-22T17:36:37.021Z,99685.00
2018-01-22T17:39:04.901Z,99691.67
2018-01-22T17:41:32.414Z,99686.88
2018-01-22T17:44:00.025Z,99695.55
2018-01-22T17:46:27.722Z,99693.80
2018-01-22T17:48:55.240Z,99701.95
2018-01-22T17:51:22.951Z,99697.52
2018-01-22T17:53:51.459Z,99703.30
2018-01-22T17:56:20.065Z,99706.48
2018-01-22T17:58:47.828Z,99715.66
2018-01-22T18:01:15.373Z,99720.78
2018-01-22T18:03:43.063Z,99722.88
2018-01-22T18:06:10.738Z,99731.68
2018-01-22T18:08:39.141Z,99735.48
2018-01-22T18:11:07.355Z,99740.73
2018-01-22T18:13:34.925Z,99739.92
2018-01-22T18:16:02.566Z,99742.70
2018-01-22T18:18:30.197Z,99746.48
2018-01-22T18:20:57.747Z,99751.31
2018-01-22T18:23:25.409Z,99749.69
2018-01-22T18:25:53.332Z,99748.63
2018-01-22T18:28:21.018Z,99751.41
2018-01-22T18:37:32.739Z,99767.22
2018-01-22T18:40:00.309Z,99771.16
2018-01-22T18:42:27.873Z,99772.87
2018-01-22T18:44:55.434Z,99768.97
2018-01-22T18:47:23.823Z,99772.00
2018-01-22T18:49:51.726Z,99768.97
2018-01-22T18:52:19.535Z,99767.19
2018-01-22T18:54:47.311Z,99778.06
2018-01-22T18:57:14.939Z,99778.88
2018-01-22T18:59:42.613Z,99776.75
2018-01-22T19:02:10.361Z,99782.80
2018-01-22T19:04:38.049Z,99789.16
2018-01-22T19:07:05.638Z,99792.31
2018-01-22T19:09:33.414Z,99789.41
2018-01-22T19:12:02.646Z,99796.13
2018-01-22T19:14:30.683Z,99796.13
2018-01-22T19:16:58.632Z,99803.34
2018-01-22T19:19:26.504Z,99805.88
2018-01-22T19:21:54.287Z,99811.09
2018-01-22T19:24:23.534Z,99812.84
2018-01-22T19:26:51.913Z,99811.31
2018-01-22T19:29:19.712Z,99812.91
2018-01-22T19:31:47.394Z,99812.81
2018-01-22T19:34:15.092Z,99815.56
2018-01-22T19:36:42.925Z,99820.32
2018-01-22T19:39:10.718Z,99824.16
2018-01-22T19:41:38.491Z,99818.82
2018-01-22T19:44:05.975Z,99824.98
2018-01-22T19:46:34.429Z,99816.29
2018-01-22T19:49:01.922Z,99824.98
2018-01-22T19:51:29.449Z,99826.98
2018-01-22T19:53:56.969Z,99833.95
2018-01-22T19:56:25.227Z,99834.48
2018-01-22T19:58:52.786Z,99834.13
2018-01-22T20:01:20.392Z,99836.70
2018-01-22T20:03:47.912Z,99841.70
2018-01-22T20:06:15.509Z,99836.25
2018-01-22T20:08:43.029Z,99845.78
2018-01-22T20:11:10.549Z,99849.19
2018-01-22T20:13:38.123Z,99849.50
2018-01-22T20:16:05.798Z,99855.81
2018-01-22T20:18:33.344Z,99856.34
2018-01-22T20:21:05.963Z,99856.63
2018-01-22T20:23:33.457Z,99856.60
2018-01-22T20:26:01.033Z,99857.69
2018-01-22T20:28:28.657Z,99863.98
2018-01-22T20:30:56.170Z,99867.82
2018-01-22T20:33:23.854Z,99864.20
2018-01-22T20:35:51.493Z,99870.11
2018-01-22T20:38:19.035Z,99870.11
2018-01-22T20:40:46.666Z,99877.86
2018-01-22T20:43:14.248Z,99887.24
2018-01-22T20:45:42.050Z,99887.39
2018-01-22T20:48:10.478Z,99890.86
2018-01-22T20:50:38.819Z,99905.59
2018-01-22T20:53:06.314Z,99897.18
2018-01-22T20:55:33.843Z,99896.98
2018-01-22T20:58:01.301Z,99899.73
2018-01-22T21:00:28.838Z,99900.67
2018-01-22T21:02:56.342Z,99908.72
2018-01-22T21:05:23.922Z,99925.61
2018-01-22T21:07:51.555Z,99928.95
2018-01-22T21:10:19.052Z,99934.77
2018-01-22T21:12:46.684Z,99935.43
2018-01-22T21:15:14.875Z,99945.66
2018-01-22T21:17:42.395Z,99946.29
2018-01-22T21:20:09.972Z,99950.77
2018-01-22T21:22:37.460Z,99958.27
2018-01-22T21:25:05.070Z,99963.00
2018-01-22T21:27:32.633Z,99966.25
2018-01-22T21:30:00.218Z,99969.81
2018-01-22T21:32:27.778Z,99976.89
2018-01-22T21:34:55.277Z,99975.98
2018-01-22T21:37:22.736Z,99985.47
2018-01-22T21:39:50.291Z,99991.94
2018-01-22T21:42:17.759Z,99988.53
2018-01-22T21:44:45.255Z,99998.20
2018-01-22T21:47:12.762Z,100002.39
2018-01-22T21:49:40.232Z,100005.27
2018-01-22T21:52:08.779Z,100016.69
2018-01-22T21:54:36.357Z,100021.26
2018-01-22T21:57:03.926Z,100017.72
2018-01-22T21:59:32.407Z,100029.55
2018-01-22T22:01:59.943Z,100035.71
2018-01-22T22:04:27.423Z,100038.09
2018-01-22T22:06:54.944Z,100039.81
2018-01-22T22:09:22.515Z,100038.69
2018-01-22T22:11:50.063Z,100045.95
2018-01-22T22:14:17.575Z,100051.91
2018-01-22T22:16:45.094Z,100050.22
2018-01-22T22:19:12.633Z,100051.16
2018-01-22T22:21:40.216Z,100054.19
2018-01-22T22:24:07.798Z,100064.48
2018-01-22T22:26:35.375Z,100067.80
2018-01-22T22:29:02.944Z,100067.18
2018-01-22T22:31:30.466Z,100070.19
2018-01-22T22:33:57.960Z,100079.70
2018-01-22T22:36:25.418Z,100084.84
2018-01-22T22:38:52.926Z,100074.73
2018-01-22T22:41:20.459Z,100090.38
2018-01-22T22:43:47.950Z,100088.28
2018-01-22T22:46:15.517Z,100093.80
2018-01-22T22:48:43.006Z,100102.22
2018-01-22T22:51:10.515Z,100103.56
2018-01-22T22:53:38.018Z,100105.57
2018-01-22T22:56:05.550Z,100110.95
2018-01-22T22:58:33.004Z,100114.09
2018-01-22T23:01:00.496Z,100117.91
2018-01-22T23:03:28.194Z,100123.27
2018-01-22T23:05:55.886Z,100131.09
2018-01-22T23:08:23.392Z,100127.42
2018-01-22T23:10:50.856Z,100137.17
2018-01-22T23:13:18.365Z,100131.27
2018-01-22T23:15:45.842Z,100136.92
2018-01-22T23:18:14.129Z,100150.39
2018-01-22T23:20:41.659Z,100152.48
2018-01-22T23:23:09.157Z,100153.92
2018-01-22T23:25:36.640Z,100157.69
2018-01-22T23:28:04.230Z,100172.64
2018-01-22T23:30:36.760Z,100177.36
2018-01-22T23:33:04.336Z,100182.82
2018-01-22T23:35:31.838Z,100188.14
2018-01-22T23:37:59.309Z,100195.54
2018-01-22T23:40:26.780Z,100196.55
2018-01-22T23:42:54.372Z,100205.88
2018-01-22T23:45:22.003Z,100200.93
2018-01-22T23:47:49.480Z,100218.22
2018-01-22T23:50:17.026Z,100211.20
2018-01-22T23:52:44.533Z,100216.27
2018-01-22T23:55:12.003Z,100218.05
2018-01-22T23:57:39.580Z,100213.05
